createdAt,value
2022-08-12T00:02:58.712Z,61.85
2022-08-12T00:06:21.479Z,61.78
2022-08-12T00:09:44.115Z,62.08
2022-08-12T00:13:05.337Z,62.11
2022-08-12T00:16:26.303Z,62.12
2022-08-12T00:19:47.499Z,62.24
2022-08-12T00:23:09.697Z,62.14
2022-08-12T00:26:36.502Z,62.51
2022-08-12T00:29:58.455Z,62.58
2022-08-12T00:33:19.623Z,62.64
2022-08-12T00:36:48.861Z,62.79
2022-08-12T00:40:12.163Z,63.05
2022-08-12T00:43:18.576Z,63.34
2022-08-12T00:46:36.597Z,63.63
2022-08-12T00:49:42.152Z,63.88
2022-08-12T00:52:47.595Z,64.22
2022-08-12T00:55:58.270Z,64.12
2022-08-12T00:59:04.925Z,64.19
2022-08-12T01:02:12.136Z,64.51
2022-08-12T01:05:37.111Z,64.70
2022-08-12T01:08:59.979Z,64.85
2022-08-12T01:12:05.832Z,65.03
2022-08-12T01:15:14.626Z,65.38
2022-08-12T01:18:21.572Z,65.59
2022-08-12T01:22:04.725Z,65.72
2022-08-12T01:25:15.142Z,66.13
2022-08-12T01:28:22.115Z,66.32
2022-08-12T01:31:27.197Z,66.45
2022-08-12T01:34:37.528Z,66.82
2022-08-12T01:37:49.968Z,67.05
2022-08-12T01:41:00.189Z,67.63
2022-08-12T01:44:05.384Z,68.48
2022-08-12T01:47:30.524Z,69.38
2022-08-12T01:51:06.395Z,70.33
2022-08-12T01:54:14.072Z,71.35
2022-08-12T01:57:58.044Z,71.99
2022-08-12T02:01:05.263Z,72.76
2022-08-12T02:04:42.474Z,73.00
2022-08-12T02:08:26.331Z,73.56
2022-08-12T02:11:34.819Z,74.00
2022-08-12T02:14:57.317Z,74.66
2022-08-12T02:18:22.484Z,75.49
2022-08-12T02:21:40.524Z,76.00
2022-08-12T02:24:47.407Z,76.29
2022-08-12T02:27:54.867Z,76.43
2022-08-12T02:31:05.981Z,77.06
2022-08-12T02:34:12.626Z,77.03
2022-08-12T02:37:18.960Z,76.77
2022-08-12T02:40:24.531Z,76.39
2022-08-12T02:43:38.473Z,76.31
2022-08-12T02:46:49.663Z,76.43
2022-08-12T02:49:56.432Z,76.38
2022-08-12T02:53:01.263Z,76.70
2022-08-12T02:56:07.524Z,76.52
2022-08-12T02:59:16.456Z,76.93
2022-08-12T03:02:28.612Z,76.99
2022-08-12T03:05:38.681Z,77.32
2022-08-12T03:08:53.835Z,77.55
2022-08-12T03:12:07.702Z,77.54
2022-08-12T03:15:16.245Z,78.15
2022-08-12T03:18:31.244Z,78.52
2022-08-12T03:22:03.817Z,78.42
2022-08-12T03:25:05.519Z,78.70
2022-08-12T03:28:34.126Z,78.82
2022-08-12T03:31:37.802Z,78.77
2022-08-12T03:34:45.725Z,78.73
2022-08-12T03:37:51.976Z,78.59
2022-08-12T03:41:20.492Z,79.12
2022-08-12T03:44:49.946Z,79.10
2022-08-12T03:48:19.091Z,78.85
2022-08-12T03:51:41.947Z,78.87
2022-08-12T03:55:03.084Z,79.66
2022-08-12T03:58:25.755Z,79.85
2022-08-12T04:01:29.439Z,79.72
2022-08-12T04:04:35.749Z,79.34
2022-08-12T04:07:58.443Z,80.13
2022-08-12T04:11:19.968Z,80.20
2022-08-12T04:14:23.577Z,80.25
2022-08-12T04:17:28.703Z,80.41
2022-08-12T04:20:33.042Z,80.38
2022-08-12T04:23:39.475Z,80.20
2022-08-12T04:26:43.131Z,80.18
2022-08-12T04:30:21.139Z,80.23
2022-08-12T04:33:12.318Z,80.15
2022-08-12T04:36:16.072Z,79.97
2022-08-12T04:39:23.259Z,79.68
2022-08-12T04:42:26.953Z,79.80
2022-08-12T04:45:32.992Z,79.75
2022-08-12T04:48:36.780Z,79.73
2022-08-12T04:51:41.944Z,79.46
2022-08-12T04:54:58.912Z,79.59
2022-08-12T04:58:02.814Z,79.17
2022-08-12T05:01:06.995Z,78.80
2022-08-12T05:04:11.874Z,78.66
2022-08-12T05:07:15.551Z,78.30
2022-08-12T05:10:33.594Z,78.01
2022-08-12T05:13:42.284Z,77.15
2022-08-12T05:16:46.183Z,76.28
2022-08-12T05:19:49.769Z,75.65
2022-08-12T05:23:12.464Z,74.91
2022-08-12T05:26:19.074Z,74.31
2022-08-12T05:30:06.861Z,73.38
2022-08-12T05:32:46.357Z,72.07
2022-08-12T05:35:50.292Z,71.20
2022-08-12T05:38:59.904Z,69.51
2022-08-12T05:42:05.263Z,68.94
2022-08-12T05:45:10.956Z,67.53
2022-08-12T05:48:15.422Z,65.45
2022-08-12T05:51:19.604Z,63.52
2022-08-12T05:54:41.137Z,61.44
2022-08-12T05:57:55.372Z,60.83
2022-08-12T06:00:59.160Z,59.41
2022-08-12T06:04:22.828Z,58.64
2022-08-12T06:07:59.969Z,57.70
2022-08-12T06:10:50.790Z,57.73
2022-08-12T06:13:58.531Z,57.56
2022-08-12T06:17:02.663Z,58.24
2022-08-12T06:20:27.770Z,57.59
2022-08-12T06:23:33.628Z,57.64
2022-08-12T06:26:37.323Z,57.65
2022-08-12T06:30:09.134Z,57.32
2022-08-12T06:33:24.934Z,57.35
2022-08-12T06:36:33.518Z,56.78
2022-08-12T06:39:37.498Z,56.29
2022-08-12T06:42:52.234Z,55.85
2022-08-12T06:45:58.740Z,56.11
2022-08-12T06:49:02.478Z,55.04
2022-08-12T06:52:07.474Z,54.51
2022-08-12T06:55:14.015Z,54.40
2022-08-12T06:58:20.482Z,54.21
2022-08-12T07:01:25.656Z,53.23
2022-08-12T07:04:37.928Z,52.86
2022-08-12T07:07:42.042Z,53.04
2022-08-12T07:10:59.342Z,52.86
2022-08-12T07:14:12.631Z,52.75
2022-08-12T07:17:18.409Z,51.51
2022-08-12T07:20:50.291Z,50.26
2022-08-12T07:23:46.121Z,49.65
2022-08-12T07:26:49.746Z,48.91
2022-08-12T07:30:03.480Z,47.93
2022-08-12T07:33:11.773Z,47.96
2022-08-12T07:36:16.114Z,48.11
2022-08-12T07:39:19.777Z,47.97
2022-08-12T07:42:23.431Z,48.20
2022-08-12T07:45:30.771Z,48.44
2022-08-12T07:48:41.403Z,47.91
2022-08-12T07:51:46.580Z,47.56
2022-08-12T07:54:50.275Z,46.86
2022-08-12T07:57:59.319Z,46.58
2022-08-12T08:01:04.656Z,46.42
2022-08-12T08:04:34.523Z,45.23
2022-08-12T08:07:38.793Z,44.23
2022-08-12T08:10:42.690Z,42.79
2022-08-12T08:13:47.237Z,41.89
2022-08-12T08:16:51.027Z,40.65
2022-08-12T08:20:03.016Z,40.25
2022-08-12T08:23:11.479Z,41.32
2022-08-12T08:26:16.133Z,40.37
2022-08-12T08:29:22.700Z,39.64
2022-08-12T08:32:26.437Z,38.67
2022-08-12T08:35:46.930Z,40.88
2022-08-12T08:38:57.823Z,39.89
2022-08-12T08:42:20.688Z,38.35
2022-08-12T08:45:24.726Z,37.84
2022-08-12T08:48:31.205Z,38.65
2022-08-12T08:51:36.795Z,37.96
2022-08-12T08:54:40.840Z,37.32
2022-08-12T08:57:49.411Z,39.30
2022-08-12T09:00:53.439Z,37.98
2022-08-12T09:05:07.917Z,36.62
2022-08-12T09:07:51.872Z,37.57
2022-08-12T09:10:45.828Z,36.27
2022-08-12T09:14:11.333Z,36.91
2022-08-12T09:17:13.896Z,36.92
2022-08-12T09:20:27.491Z,35.93
2022-08-12T09:23:58.492Z,37.05
2022-08-12T09:26:59.466Z,36.08
2022-08-12T09:30:11.842Z,34.56
2022-08-12T09:34:26.691Z,34.18
2022-08-12T09:36:58.092Z,34.59
2022-08-12T09:40:55.835Z,35.22
2022-08-12T09:43:53.773Z,35.54
2022-08-12T09:47:10.501Z,35.51
2022-08-12T09:50:20.499Z,36.33
2022-08-12T09:53:29.478Z,36.91
2022-08-12T09:57:02.582Z,36.46
2022-08-12T10:00:16.904Z,36.54
2022-08-12T10:03:32.204Z,36.42
2022-08-12T10:06:53.805Z,36.73
2022-08-12T10:09:59.356Z,37.35
2022-08-12T10:13:35.116Z,34.61
2022-08-12T10:16:45.785Z,35.48
2022-08-12T10:19:52.373Z,34.25
2022-08-12T10:23:00.261Z,32.16
2022-08-12T10:26:38.728Z,32.77
2022-08-12T10:30:03.432Z,31.91
2022-08-12T10:33:18.389Z,31.91
2022-08-12T10:36:39.979Z,31.47
2022-08-12T10:40:05.778Z,31.68
2022-08-12T10:43:29.090Z,31.83
2022-08-12T10:46:55.358Z,31.39
2022-08-12T10:50:35.742Z,31.69
2022-08-12T10:53:43.991Z,31.40
2022-08-12T10:56:49.624Z,31.14
2022-08-12T11:00:30.697Z,30.79
2022-08-12T11:04:27.056Z,29.84
2022-08-12T11:07:05.238Z,29.73
2022-08-12T11:10:14.012Z,27.77
2022-08-12T11:13:17.617Z,26.24
2022-08-12T11:16:23.170Z,24.81
2022-08-12T11:19:28.963Z,26.27
2022-08-12T11:22:34.022Z,26.86
2022-08-12T11:25:56.536Z,27.39
2022-08-12T11:29:05.849Z,27.83
2022-08-12T11:32:25.132Z,27.74
2022-08-12T11:35:30.140Z,28.47
2022-08-12T11:38:36.247Z,27.98
2022-08-12T11:41:40.366Z,27.90
2022-08-12T11:44:46.708Z,28.33
2022-08-12T11:47:50.343Z,27.49
2022-08-12T11:51:00.618Z,27.69
2022-08-12T11:54:04.604Z,27.23
2022-08-12T11:58:06.940Z,26.93
2022-08-12T12:03:56.190Z,25.99
2022-08-12T12:07:07.398Z,27.18
2022-08-12T12:10:19.426Z,25.97
2022-08-12T12:14:08.460Z,26.06
2022-08-12T12:16:50.068Z,25.99
2022-08-12T12:19:55.650Z,25.51
2022-08-12T12:23:00.647Z,25.74
2022-08-12T12:26:07.888Z,25.26
2022-08-12T12:30:18.044Z,24.96
2022-08-12T12:32:35.884Z,26.29
2022-08-12T12:36:19.770Z,25.53
2022-08-12T12:39:10.469Z,26.34
2022-08-12T12:42:43.312Z,25.44
2022-08-12T12:45:50.845Z,24.97
2022-08-12T12:48:54.471Z,25.64
2022-08-12T12:52:18.383Z,25.10
2022-08-12T12:55:26.067Z,24.74
2022-08-12T12:58:40.131Z,25.65
2022-08-12T13:01:47.379Z,26.25
2022-08-12T13:04:54.561Z,24.69
2022-08-12T13:08:02.903Z,26.63
2022-08-12T13:11:09.330Z,25.59
2022-08-12T13:14:27.897Z,24.67
2022-08-12T13:18:02.486Z,24.62
2022-08-12T13:20:59.503Z,24.78
2022-08-12T13:24:09.952Z,24.52
2022-08-12T13:27:15.563Z,24.25
2022-08-12T13:30:23.708Z,24.71
2022-08-12T13:34:32.689Z,24.16
2022-08-12T13:36:53.994Z,24.20
2022-08-12T13:39:57.749Z,24.65
2022-08-12T13:43:07.113Z,24.12
2022-08-12T13:46:14.523Z,24.37
2022-08-12T13:49:54.729Z,24.05
2022-08-12T13:52:43.514Z,23.86
2022-08-12T13:56:01.980Z,24.05
2022-08-12T13:59:08.973Z,23.75
2022-08-12T14:02:13.490Z,23.18
2022-08-12T14:05:37.877Z,23.27
2022-08-12T14:08:42.806Z,23.37
2022-08-12T14:11:58.717Z,23.39
2022-08-12T14:15:05.095Z,24.23
2022-08-12T14:18:15.014Z,23.90
2022-08-12T14:21:22.509Z,23.37
2022-08-12T14:24:27.073Z,23.31
2022-08-12T14:28:02.518Z,23.74
2022-08-12T14:31:01.220Z,23.16
2022-08-12T14:34:05.303Z,23.17
2022-08-12T14:37:12.814Z,23.72
2022-08-12T14:40:18.640Z,23.73
2022-08-12T14:43:25.755Z,23.46
2022-08-12T14:46:36.769Z,23.63
2022-08-12T14:50:34.253Z,23.42
2022-08-12T15:00:14.858Z,24.16
2022-08-12T15:03:46.714Z,23.62
2022-08-12T15:06:52.928Z,23.98
2022-08-12T15:09:57.036Z,23.39
2022-08-12T15:13:07.152Z,24.02
2022-08-12T15:16:11.599Z,23.79
2022-08-12T15:20:11.241Z,24.28
2022-08-12T15:22:53.456Z,23.55
2022-08-12T15:26:02.760Z,23.67
2022-08-12T15:29:07.042Z,23.30
2022-08-12T15:32:15.992Z,24.70
2022-08-12T15:35:22.032Z,23.94
2022-08-12T15:38:28.266Z,23.60
2022-08-12T15:41:50.278Z,24.79
2022-08-12T15:44:54.492Z,24.79
2022-08-12T15:48:16.350Z,24.41
2022-08-12T15:51:58.773Z,24.70
2022-08-12T15:55:06.062Z,24.38
2022-08-12T15:58:16.905Z,24.50
2022-08-12T16:01:21.121Z,24.83
2022-08-12T16:04:24.746Z,23.94
2022-08-12T16:07:32.670Z,24.02
2022-08-12T16:10:42.684Z,24.53
2022-08-12T16:13:46.287Z,24.09
2022-08-12T16:16:51.321Z,24.00
2022-08-12T16:20:03.894Z,22.63
2022-08-12T16:23:26.630Z,22.53
2022-08-12T16:26:40.710Z,22.64
2022-08-12T16:29:53.102Z,22.44
2022-08-12T16:33:08.295Z,22.67
2022-08-12T16:36:18.888Z,22.00
2022-08-12T16:39:24.078Z,21.93
2022-08-12T16:42:28.777Z,22.08
2022-08-12T16:46:05.428Z,22.32
2022-08-12T16:49:04.105Z,22.72
2022-08-12T16:52:14.470Z,22.78
2022-08-12T16:55:21.498Z,23.36
2022-08-12T16:58:30.953Z,23.07
2022-08-12T17:01:36.774Z,22.87
2022-08-12T17:04:53.068Z,22.96
2022-08-12T17:07:57.605Z,22.89
2022-08-12T17:11:02.696Z,22.67
2022-08-12T17:14:12.113Z,23.39
2022-08-12T17:17:38.876Z,23.74
2022-08-12T17:20:47.299Z,24.37
2022-08-12T17:23:54.479Z,24.98
2022-08-12T17:27:01.166Z,25.71
2022-08-12T17:30:14.356Z,25.79
2022-08-12T17:33:24.811Z,25.74
2022-08-12T17:36:28.910Z,25.33
2022-08-12T17:39:36.514Z,25.96
2022-08-12T17:43:00.067Z,25.73
2022-08-12T17:46:12.764Z,26.00
2022-08-12T17:50:02.548Z,26.65
2022-08-12T17:52:49.975Z,26.55
2022-08-12T17:55:53.999Z,26.69
2022-08-12T17:58:59.889Z,27.02
2022-08-12T18:02:08.175Z,27.19
2022-08-12T18:05:12.254Z,27.29
2022-08-12T18:08:19.795Z,27.46
2022-08-12T18:12:05.476Z,27.56
2022-08-12T18:15:26.235Z,27.81
2022-08-12T18:18:36.900Z,28.23
2022-08-12T18:22:02.776Z,28.85
2022-08-12T18:26:12.211Z,29.50
2022-08-12T18:28:40.552Z,30.49
2022-08-12T18:31:59.052Z,30.61
2022-08-12T18:35:10.654Z,31.14
2022-08-12T18:38:16.724Z,31.36
2022-08-12T18:41:32.032Z,31.67
2022-08-12T18:44:37.788Z,31.09
2022-08-12T18:47:46.745Z,31.35
2022-08-12T18:51:09.579Z,31.57
2022-08-12T18:54:29.155Z,31.86
2022-08-12T18:58:06.919Z,32.11
2022-08-12T19:01:04.029Z,32.76
2022-08-12T19:04:09.076Z,33.00
2022-08-12T19:07:20.991Z,33.05
2022-08-12T19:10:25.198Z,33.19
2022-08-12T19:13:49.369Z,33.15
2022-08-12T19:16:54.820Z,33.54
2022-08-12T19:20:04.670Z,33.20
2022-08-12T19:23:16.244Z,33.62
2022-08-12T19:26:22.417Z,33.88
2022-08-12T19:29:39.665Z,33.57
2022-08-12T19:32:48.832Z,33.85
2022-08-12T19:36:08.278Z,34.53
2022-08-12T19:39:25.312Z,34.55
2022-08-12T19:42:37.922Z,34.85
2022-08-12T19:45:48.752Z,35.32
2022-08-12T19:48:58.737Z,35.75
2022-08-12T19:52:12.195Z,35.48
2022-08-12T19:55:27.923Z,36.03
2022-08-12T19:58:31.687Z,35.98
2022-08-12T20:01:41.143Z,35.59
2022-08-12T20:06:06.637Z,36.28
2022-08-12T20:08:33.145Z,36.33
2022-08-12T20:12:12.526Z,36.46
2022-08-12T20:15:07.464Z,36.41
2022-08-12T20:18:19.261Z,36.88
2022-08-12T20:21:40.545Z,37.26
2022-08-12T20:24:47.600Z,38.01
2022-08-12T20:28:02.962Z,38.36
2022-08-12T20:31:07.954Z,38.37
2022-08-12T20:34:12.698Z,38.81
2022-08-12T20:37:16.384Z,39.24
2022-08-12T20:40:22.216Z,39.25
2022-08-12T20:43:32.196Z,39.43
2022-08-12T20:46:36.487Z,39.38
2022-08-12T20:49:43.884Z,40.11
2022-08-12T20:52:49.164Z,41.75
2022-08-12T20:55:57.117Z,42.73
2022-08-12T20:59:05.980Z,43.69
2022-08-12T21:02:09.863Z,44.69
2022-08-12T21:05:41.193Z,45.85
2022-08-12T21:09:01.488Z,45.00
2022-08-12T21:12:31.733Z,45.32
2022-08-12T21:15:54.658Z,46.08
2022-08-12T21:18:57.491Z,46.94
2022-08-12T21:22:03.278Z,47.03
2022-08-12T21:25:14.516Z,47.49
2022-08-12T21:28:30.725Z,48.33
2022-08-12T21:32:37.106Z,48.77
2022-08-12T21:34:59.485Z,49.41
2022-08-12T21:38:08.640Z,49.80
2022-08-12T21:41:15.676Z,50.22
2022-08-12T21:44:24.117Z,50.58
2022-08-12T21:47:46.930Z,50.94
2022-08-12T21:50:57.291Z,50.22
2022-08-12T21:54:07.608Z,48.84
2022-08-12T21:57:14.687Z,48.52
2022-08-12T22:00:19.868Z,47.73
2022-08-12T22:04:03.591Z,47.54
2022-08-12T22:07:06.916Z,47.12
2022-08-12T22:10:12.538Z,46.96
2022-08-12T22:14:02.134Z,46.64
2022-08-12T22:16:47.130Z,46.63
2022-08-12T22:19:50.874Z,46.18
2022-08-12T22:22:56.827Z,46.06
2022-08-12T22:26:00.813Z,46.72
2022-08-12T22:29:22.335Z,47.04
2022-08-12T22:32:30.136Z,47.02
2022-08-12T22:35:55.680Z,47.06
2022-08-12T22:38:59.938Z,47.06
2022-08-12T22:42:20.933Z,47.28
2022-08-12T22:45:59.017Z,47.31
2022-08-12T22:49:06.747Z,47.64
2022-08-12T22:52:13.126Z,47.51
2022-08-12T22:55:17.471Z,47.39
2022-08-12T22:58:41.613Z,47.71
2022-08-12T23:01:52.456Z,47.84
2022-08-12T23:05:10.334Z,47.76
2022-08-12T23:08:17.604Z,47.97
2022-08-12T23:11:23.344Z,48.00
2022-08-12T23:14:30.379Z,48.36
2022-08-12T23:17:40.583Z,48.48
2022-08-12T23:20:46.493Z,49.19
2022-08-12T23:24:09.734Z,49.57
2022-08-12T23:27:51.119Z,50.45
2022-08-12T23:31:04.260Z,51.21
2022-08-12T23:34:08.563Z,51.43
2022-08-12T23:37:13.983Z,51.81
2022-08-12T23:40:21.962Z,52.08
2022-08-12T23:43:27.291Z,52.95
2022-08-12T23:46:44.128Z,53.28
2022-08-12T23:49:56.265Z,53.76
2022-08-12T23:53:06.590Z,54.46
2022-08-12T23:56:20.958Z,54.68
2022-08-12T23:59:29.671Z,55.16
